sensor_id;sensor_type;location;lat;lon;timestamp;P1;P2;P0
77516;PMS7003;68414;53.946;27.634;2023-05-09T00:00:56;22.366667;20.633333;14.116667
77516;PMS7003;68414;53.946;27.634;2023-05-09T00:01:57;23.500000;22.066668;13.733334
77516;PMS7003;68414;53.946;27.634;2023-05-09T00:02:56;23.250000;21.049999;14.783334
77516;PMS7003;68414;53.946;27.634;2023-05-09T00:03:58;24.166666;21.983334;15.383333
77516;PMS7003;68414;53.946;27.634;2023-05-09T00:04:56;22.000000;20.733334;14.783334
77516;PMS7003;68414;53.946;27.634;2023-05-09T00:05:56;23.350000;22.200001;15.983334
77516;PMS7003;68414;53.946;27.634;2023-05-09T00:06:57;23.583334;22.500000;15.583333
77516;PMS7003;68414;53.946;27.634;2023-05-09T00:07:56;23.400000;22.450001;14.900000
77516;PMS7003;68414;53.946;27.634;2023-05-09T00:08:56;20.183332;19.283333;13.883333
77516;PMS7003;68414;53.946;27.634;2023-05-09T00:09:56;23.883333;23.299999;16.400000
77516;PMS7003;68414;53.946;27.634;2023-05-09T00:10:57;21.916666;20.833334;14.633333
77516;PMS7003;68414;53.946;27.634;2023-05-09T00:11:56;21.700001;20.983334;15.583333
77516;PMS7003;68414;53.946;27.634;2023-05-09T00:12:56;22.316668;21.716667;14.900000
77516;PMS7003;68414;53.946;27.634;2023-05-09T00:13:57;22.200001;20.533333;13.416667
77516;PMS7003;68414;53.946;27.634;2023-05-09T00:14:56;21.350000;19.400000;13.850000
77516;PMS7003;68414;53.946;27.634;2023-05-09T00:15:56;23.400000;22.416666;15.583333
77516;PMS7003;68414;53.946;27.634;2023-05-09T00:16:56;23.783333;22.733334;15.016666
77516;PMS7003;68414;53.946;27.634;2023-05-09T00:17:57;21.466667;20.616667;13.816667
77516;PMS7003;68414;53.946;27.634;2023-05-09T00:18:58;19.916666;19.000000;13.883333
77516;PMS7003;68414;53.946;27.634;2023-05-09T00:19:56;22.583334;20.666666;14.116667
77516;PMS7003;68414;53.946;27.634;2023-05-09T00:20:56;21.799999;20.283333;14.066667
77516;PMS7003;68414;53.946;27.634;2023-05-09T00:21:56;25.033333;22.850000;15.283334
77516;PMS7003;68414;53.946;27.634;2023-05-09T00:22:56;24.150000;22.116667;15.100000
77516;PMS7003;68414;53.946;27.634;2023-05-09T00:23:56;23.750000;22.016666;14.666667
77516;PMS7003;68414;53.946;27.634;2023-05-09T00:24:56;21.233334;19.400000;13.316667
77516;PMS7003;68414;53.946;27.634;2023-05-09T00:25:57;21.583334;20.150000;13.583333
77516;PMS7003;68414;53.946;27.634;2023-05-09T00:26:56;22.483334;20.633333;14.083333
77516;PMS7003;68414;53.946;27.634;2023-05-09T00:27:56;23.533333;22.383333;15.400000
77516;PMS7003;68414;53.946;27.634;2023-05-09T00:28:56;21.566668;19.900000;13.816667
77516;PMS7003;68414;53.946;27.634;2023-05-09T00:29:56;22.750000;21.016666;14.250000
77516;PMS7003;68414;53.946;27.634;2023-05-09T00:30:57;23.799999;22.966667;14.950000
77516;PMS7003;68414;53.946;27.634;2023-05-09T00:31:56;26.299999;23.450001;15.850000
77516;PMS7003;68414;53.946;27.634;2023-05-09T00:32:56;22.933332;21.683332;14.516666
77516;PMS7003;68414;53.946;27.634;2023-05-09T00:33:56;23.600000;23.133333;14.916667
77516;PMS7003;68414;53.946;27.634;2023-05-09T00:34:57;25.583334;22.900000;14.450000
77516;PMS7003;68414;53.946;27.634;2023-05-09T00:35:56;21.683332;20.816668;14.433333
77516;PMS7003;68414;53.946;27.634;2023-05-09T00:36:56;22.466667;21.366667;15.900000
77516;PMS7003;68414;53.946;27.634;2023-05-09T00:37:56;23.950001;22.483334;15.300000
77516;PMS7003;68414;53.946;27.634;2023-05-09T00:38:56;23.716667;21.250000;15.266666
77516;PMS7003;68414;53.946;27.634;2023-05-09T00:39:56;23.366667;21.100000;13.983334
77516;PMS7003;68414;53.946;27.634;2023-05-09T00:40:56;23.183332;20.700001;13.883333
77516;PMS7003;68414;53.946;27.634;2023-05-09T00:41:56;20.966667;18.666666;13.650000
77516;PMS7003;68414;53.946;27.634;2023-05-09T00:42:58;22.283333;20.700001;13.916667
77516;PMS7003;68414;53.946;27.634;2023-05-09T00:43:56;20.833334;19.299999;13.050000
77516;PMS7003;68414;53.946;27.634;2023-05-09T00:44:56;19.200001;18.450001;11.933333
77516;PMS7003;68414;53.946;27.634;2023-05-09T00:45:56;19.433332;18.516666;13.250000
77516;PMS7003;68414;53.946;27.634;2023-05-09T00:46:56;20.583334;19.600000;13.033334
77516;PMS7003;68414;53.946;27.634;2023-05-09T00:47:57;21.066668;19.483334;13.266666
77516;PMS7003;68414;53.946;27.634;2023-05-09T00:48:57;21.166666;20.250000;13.466666
77516;PMS7003;68414;53.946;27.634;2023-05-09T00:49:57;20.316668;18.450001;12.616667
77516;PMS7003;68414;53.946;27.634;2023-05-09T00:50:57;20.299999;19.200001;12.850000
77516;PMS7003;68414;53.946;27.634;2023-05-09T00:51:57;21.833334;20.116667;13.216666
77516;PMS7003;68414;53.946;27.634;2023-05-09T00:52:57;20.150000;17.966667;12.933333
77516;PMS7003;68414;53.946;27.634;2023-05-09T00:53:57;21.133333;20.066668;13.350000
77516;PMS7003;68414;53.946;27.634;2023-05-09T00:54:57;20.383333;18.466667;13.116667
77516;PMS7003;68414;53.946;27.634;2023-05-09T00:55:56;22.283333;21.450001;13.716666
77516;PMS7003;68414;53.946;27.634;2023-05-09T00:56:58;19.983334;19.250000;12.983334
77516;PMS7003;68414;53.946;27.634;2023-05-09T00:57:57;19.616667;19.016666;13.316667
77516;PMS7003;68414;53.946;27.634;2023-05-09T00:58:56;18.650000;17.383333;11.883333
77516;PMS7003;68414;53.946;27.634;2023-05-09T00:59:56;17.350000;17.250000;12.416667
77516;PMS7003;68414;53.946;27.634;2023-05-09T01:00:56;21.183332;19.583334;13.750000
77516;PMS7003;68414;53.946;27.634;2023-05-09T01:01:56;20.916666;18.850000;13.733334
77516;PMS7003;68414;53.946;27.634;2023-05-09T01:02:57;21.166666;20.516666;12.633333
77516;PMS7003;68414;53.946;27.634;2023-05-09T01:03:57;19.616667;18.450001;13.133333
77516;PMS7003;68414;53.946;27.634;2023-05-09T01:04:57;21.350000;20.250000;13.733334
77516;PMS7003;68414;53.946;27.634;2023-05-09T01:06:10;19.716667;18.933332;12.900000
77516;PMS7003;68414;53.946;27.634;2023-05-09T01:14:03;21.283333;19.783333;14.250000
77516;PMS7003;68414;53.946;27.634;2023-05-09T01:15:00;21.049999;19.916666;14.100000
77516;PMS7003;68414;53.946;27.634;2023-05-09T01:16:00;22.150000;20.466667;13.566667
77516;PMS7003;68414;53.946;27.634;2023-05-09T01:18:00;22.933332;21.366667;14.216666
77516;PMS7003;68414;53.946;27.634;2023-05-09T01:21:00;18.883333;18.150000;12.583333
77516;PMS7003;68414;53.946;27.634;2023-05-09T01:21:58;22.049999;18.850000;13.583333
77516;PMS7003;68414;53.946;27.634;2023-05-09T01:29:57;19.700001;18.950001;13.433333
77516;PMS7003;68414;53.946;27.634;2023-05-09T01:30:57;19.900000;19.016666;12.950000
77516;PMS7003;68414;53.946;27.634;2023-05-09T01:31:57;20.033333;19.200001;12.733334
77516;PMS7003;68414;53.946;27.634;2023-05-09T01:32:59;23.066668;21.000000;13.983334
77516;PMS7003;68414;53.946;27.634;2023-05-09T01:33:58;19.150000;18.166666;12.433333
77516;PMS7003;68414;53.946;27.634;2023-05-09T01:34:59;19.733334;18.233334;13.350000
77516;PMS7003;68414;53.946;27.634;2023-05-09T01:36:01;22.183332;20.250000;13.783334
77516;PMS7003;68414;53.946;27.634;2023-05-09T01:36:58;22.100000;20.616667;13.383333
77516;PMS7003;68414;53.946;27.634;2023-05-09T01:37:57;20.600000;20.183332;12.683333
77516;PMS7003;68414;53.946;27.634;2023-05-09T01:38:57;20.866667;18.883333;12.300000
77516;PMS7003;68414;53.946;27.634;2023-05-09T01:40:03;23.116667;21.633333;13.483334
77516;PMS7003;68414;53.946;27.634;2023-05-09T01:40:57;24.916666;23.183332;14.233334
77516;PMS7003;68414;53.946;27.634;2023-05-09T01:41:59;27.100000;24.216667;15.800000
77516;PMS7003;68414;53.946;27.634;2023-05-09T01:42:59;24.450001;23.600000;14.716666
77516;PMS7003;68414;53.946;27.634;2023-05-09T01:43:58;25.600000;23.583334;14.000000
77516;PMS7003;68414;53.946;27.634;2023-05-09T01:44:57;24.150000;20.183332;14.316667
77516;PMS7003;68414;53.946;27.634;2023-05-09T01:45:58;24.716667;23.500000;14.750000
77516;PMS7003;68414;53.946;27.634;2023-05-09T01:46:58;25.083334;23.650000;14.666667
77516;PMS7003;68414;53.946;27.634;2023-05-09T01:47:57;25.866667;24.016666;14.966666
77516;PMS7003;68414;53.946;27.634;2023-05-09T01:48:57;26.583334;22.799999;14.600000
77516;PMS7003;68414;53.946;27.634;2023-05-09T01:49:57;26.883333;24.216667;13.766666
77516;PMS7003;68414;53.946;27.634;2023-05-09T01:50:57;24.683332;22.683332;14.133333
77516;PMS7003;68414;53.946;27.634;2023-05-09T01:51:57;27.100000;25.400000;16.266666
77516;PMS7003;68414;53.946;27.634;2023-05-09T01:52:58;23.166666;21.616667;14.733334
77516;PMS7003;68414;53.946;27.634;2023-05-09T01:53:58;23.950001;21.466667;13.616667
77516;PMS7003;68414;53.946;27.634;2023-05-09T01:54:58;23.966667;21.533333;14.200000
77516;PMS7003;68414;53.946;27.634;2023-05-09T01:55:58;26.383333;23.650000;13.550000
77516;PMS7003;68414;53.946;27.634;2023-05-09T01:56:58;29.583334;26.166666;15.466666
77516;PMS7003;68414;53.946;27.634;2023-05-09T01:57:58;28.566668;25.616667;16.133333
77516;PMS7003;68414;53.946;27.634;2023-05-09T01:58:57;24.983334;23.400000;14.633333
77516;PMS7003;68414;53.946;27.634;2023-05-09T01:59:57;27.033333;23.500000;15.250000
77516;PMS7003;68414;53.946;27.634;2023-05-09T02:00:57;26.583334;24.266666;14.716666
77516;PMS7003;68414;53.946;27.634;2023-05-09T02:01:56;27.700001;25.716667;16.016666
77516;PMS7003;68414;53.946;27.634;2023-05-09T02:02:57;30.100000;27.883333;16.700001
77516;PMS7003;68414;53.946;27.634;2023-05-09T02:03:57;30.866667;27.883333;17.516666
77516;PMS7003;68414;53.946;27.634;2023-05-09T02:04:57;30.100000;27.566668;16.033333
77516;PMS7003;68414;53.946;27.634;2023-05-09T02:05:57;32.016666;29.700001;17.850000
77516;PMS7003;68414;53.946;27.634;2023-05-09T02:06:57;33.183334;29.816668;17.616667
77516;PMS7003;68414;53.946;27.634;2023-05-09T02:07:56;38.099998;32.700001;19.216667
77516;PMS7003;68414;53.946;27.634;2023-05-09T02:08:57;38.933334;33.816666;19.983334
77516;PMS7003;68414;53.946;27.634;2023-05-09T02:09:57;46.099998;37.616665;21.683332
77516;PMS7003;68414;53.946;27.634;2023-05-09T02:10:56;43.316666;37.049999;22.100000
77516;PMS7003;68414;53.946;27.634;2023-05-09T02:11:56;42.916668;36.816666;21.783333
77516;PMS7003;68414;53.946;27.634;2023-05-09T02:12:56;45.166668;36.900002;22.500000
77516;PMS7003;68414;53.946;27.634;2023-05-09T02:13:56;44.700001;37.450001;22.816668
77516;PMS7003;68414;53.946;27.634;2023-05-09T02:14:56;49.383335;39.250000;22.616667
77516;PMS7003;68414;53.946;27.634;2023-05-09T02:15:57;46.466667;38.016666;22.816668
77516;PMS7003;68414;53.946;27.634;2023-05-09T02:16:56;44.383335;36.366665;21.733334
77516;PMS7003;68414;53.946;27.634;2023-05-09T02:17:56;42.750000;35.450001;21.233334
77516;PMS7003;68414;53.946;27.634;2023-05-09T02:18:56;39.366665;33.933334;20.466667
77516;PMS7003;68414;53.946;27.634;2023-05-09T02:19:56;39.066666;34.650002;20.633333
77516;PMS7003;68414;53.946;27.634;2023-05-09T02:20:56;39.083332;34.266666;19.566668
77516;PMS7003;68414;53.946;27.634;2023-05-09T02:21:56;40.183334;34.766666;20.366667
77516;PMS7003;68414;53.946;27.634;2023-05-09T02:22:56;40.066666;34.416668;20.533333
77516;PMS7003;68414;53.946;27.634;2023-05-09T02:23:57;36.900002;33.366665;19.533333
77516;PMS7003;68414;53.946;27.634;2023-05-09T02:24:56;37.883335;33.333332;19.500000
77516;PMS7003;68414;53.946;27.634;2023-05-09T02:25:56;37.466667;32.733334;19.566668
77516;PMS7003;68414;53.946;27.634;2023-05-09T02:26:57;37.416668;31.750000;19.066668
77516;PMS7003;68414;53.946;27.634;2023-05-09T02:27:57;36.150002;32.383335;19.466667
77516;PMS7003;68414;53.946;27.634;2023-05-09T02:28:57;35.083332;32.066666;19.250000
77516;PMS7003;68414;53.946;27.634;2023-05-09T02:29:57;35.516666;32.233334;18.583334
77516;PMS7003;68414;53.946;27.634;2023-05-09T02:30:58;36.150002;32.716667;20.866667
77516;PMS7003;68414;53.946;27.634;2023-05-09T02:31:58;38.950001;33.616665;18.983334
77516;PMS7003;68414;53.946;27.634;2023-05-09T02:33:00;34.183334;30.916666;17.733334
77516;PMS7003;68414;53.946;27.634;2023-05-09T02:33:57;32.083332;30.400000;17.483334
77516;PMS7003;68414;53.946;27.634;2023-05-09T02:34:57;31.983334;29.883333;18.783333
77516;PMS7003;68414;53.946;27.634;2023-05-09T02:35:56;33.233334;29.283333;17.516666
77516;PMS7003;68414;53.946;27.634;2023-05-09T02:36:56;31.516666;29.400000;17.783333
77516;PMS7003;68414;53.946;27.634;2023-05-09T02:37:57;32.833332;29.566668;18.183332
77516;PMS7003;68414;53.946;27.634;2023-05-09T02:38:56;28.483334;25.183332;16.100000
77516;PMS7003;68414;53.946;27.634;2023-05-09T02:39:57;29.233334;26.233334;15.750000
77516;PMS7003;68414;53.946;27.634;2023-05-09T02:40:56;29.083334;26.766666;15.550000
77516;PMS7003;68414;53.946;27.634;2023-05-09T02:42:56;24.366667;23.166666;15.716666
77516;PMS7003;68414;53.946;27.634;2023-05-09T02:43:56;26.299999;24.466667;15.466666
77516;PMS7003;68414;53.946;27.634;2023-05-09T02:44:56;27.733334;25.900000;16.799999
77516;PMS7003;68414;53.946;27.634;2023-05-09T02:45:56;23.266666;21.850000;14.666667
77516;PMS7003;68414;53.946;27.634;2023-05-09T02:46:56;26.333334;24.133333;14.516666
77516;PMS7003;68414;53.946;27.634;2023-05-09T02:47:56;24.383333;22.916666;15.650000
77516;PMS7003;68414;53.946;27.634;2023-05-09T02:48:56;25.266666;24.250000;15.516666
77516;PMS7003;68414;53.946;27.634;2023-05-09T02:49:57;25.750000;23.416666;15.316667
77516;PMS7003;68414;53.946;27.634;2023-05-09T02:50:56;23.883333;22.400000;14.883333
77516;PMS7003;68414;53.946;27.634;2023-05-09T02:51:57;25.216667;23.716667;15.166667
77516;PMS7003;68414;53.946;27.634;2023-05-09T02:52:57;26.916666;25.416666;15.400000
77516;PMS7003;68414;53.946;27.634;2023-05-09T02:53:56;26.883333;25.416666;15.283334
77516;PMS7003;68414;53.946;27.634;2023-05-09T02:54:56;21.416666;19.366667;14.016666
77516;PMS7003;68414;53.946;27.634;2023-05-09T02:55:56;22.450001;21.883333;15.616667
77516;PMS7003;68414;53.946;27.634;2023-05-09T02:56:56;26.533333;23.283333;15.133333
77516;PMS7003;68414;53.946;27.634;2023-05-09T02:57:56;23.683332;22.283333;14.983334
77516;PMS7003;68414;53.946;27.634;2023-05-09T02:58:56;24.433332;22.183332;14.416667
77516;PMS7003;68414;53.946;27.634;2023-05-09T02:59:56;24.900000;23.216667;14.166667
77516;PMS7003;68414;53.946;27.634;2023-05-09T03:00:56;23.983334;21.633333;14.033334
77516;PMS7003;68414;53.946;27.634;2023-05-09T03:01:56;25.150000;22.783333;14.566667
77516;PMS7003;68414;53.946;27.634;2023-05-09T03:02:56;24.799999;23.250000;14.766666
77516;PMS7003;68414;53.946;27.634;2023-05-09T03:03:57;20.700001;19.600000;14.116667
77516;PMS7003;68414;53.946;27.634;2023-05-09T03:04:56;26.900000;24.183332;13.866667
77516;PMS7003;68414;53.946;27.634;2023-05-09T03:05:56;20.366667;19.916666;13.666667
77516;PMS7003;68414;53.946;27.634;2023-05-09T03:06:56;24.066668;22.150000;14.383333
77516;PMS7003;68414;53.946;27.634;2023-05-09T03:07:56;24.766666;23.016666;14.650000
77516;PMS7003;68414;53.946;27.634;2023-05-09T03:08:56;24.850000;22.850000;15.333333
77516;PMS7003;68414;53.946;27.634;2023-05-09T03:09:58;26.250000;24.750000;14.683333
77516;PMS7003;68414;53.946;27.634;2023-05-09T03:10:56;27.233334;25.733334;15.983334
77516;PMS7003;68414;53.946;27.634;2023-05-09T03:11:56;28.650000;25.916666;15.783334
77516;PMS7003;68414;53.946;27.634;2023-05-09T03:12:57;28.383333;27.316668;16.250000
77516;PMS7003;68414;53.946;27.634;2023-05-09T03:13:56;29.650000;25.633333;17.100000
77516;PMS7003;68414;53.946;27.634;2023-05-09T03:14:56;26.066668;25.200001;15.516666
77516;PMS7003;68414;53.946;27.634;2023-05-09T03:15:56;27.533333;24.633333;15.150000
77516;PMS7003;68414;53.946;27.634;2023-05-09T03:16:56;27.983334;25.866667;15.950000
77516;PMS7003;68414;53.946;27.634;2023-05-09T03:17:56;26.383333;24.183332;14.650000
77516;PMS7003;68414;53.946;27.634;2023-05-09T03:18:56;28.600000;24.200001;15.500000
77516;PMS7003;68414;53.946;27.634;2023-05-09T03:19:56;30.433332;27.750000;15.966666
77516;PMS7003;68414;53.946;27.634;2023-05-09T03:20:56;28.799999;26.266666;16.116667
77516;PMS7003;68414;53.946;27.634;2023-05-09T03:21:56;27.383333;25.583334;16.500000
77516;PMS7003;68414;53.946;27.634;2023-05-09T03:22:56;29.650000;26.416666;15.250000
77516;PMS7003;68414;53.946;27.634;2023-05-09T03:23:56;27.416666;24.799999;15.716666
77516;PMS7003;68414;53.946;27.634;2023-05-09T03:24:56;25.533333;23.950001;14.800000
77516;PMS7003;68414;53.946;27.634;2023-05-09T03:25:56;27.483334;26.083334;16.299999
77516;PMS7003;68414;53.946;27.634;2023-05-09T03:26:56;28.549999;25.733334;16.316668
77516;PMS7003;68414;53.946;27.634;2023-05-09T03:27:56;29.116667;26.983334;17.066668
77516;PMS7003;68414;53.946;27.634;2023-05-09T03:28:56;29.566668;27.500000;16.799999
77516;PMS7003;68414;53.946;27.634;2023-05-09T03:29:56;30.250000;26.066668;16.549999
77516;PMS7003;68414;53.946;27.634;2023-05-09T03:30:56;29.350000;27.583334;17.466667
77516;PMS7003;68414;53.946;27.634;2023-05-09T03:31:56;30.733334;28.250000;16.766666
77516;PMS7003;68414;53.946;27.634;2023-05-09T03:32:56;28.866667;27.333334;17.833334
77516;PMS7003;68414;53.946;27.634;2023-05-09T03:33:56;30.933332;27.650000;17.450001
77516;PMS7003;68414;53.946;27.634;2023-05-09T03:34:56;30.083334;28.049999;18.666666
77516;PMS7003;68414;53.946;27.634;2023-05-09T03:35:56;30.016666;27.350000;17.466667
77516;PMS7003;68414;53.946;27.634;2023-05-09T03:36:56;28.500000;26.966667;17.916666
77516;PMS7003;68414;53.946;27.634;2023-05-09T03:37:56;28.916666;26.883333;17.950001
77516;PMS7003;68414;53.946;27.634;2023-05-09T03:38:56;28.066668;26.466667;16.733334
77516;PMS7003;68414;53.946;27.634;2023-05-09T03:39:56;27.150000;25.816668;16.466667
77516;PMS7003;68414;53.946;27.634;2023-05-09T03:40:56;26.650000;24.416666;14.750000
77516;PMS7003;68414;53.946;27.634;2023-05-09T03:41:56;23.533333;21.516666;14.766666
77516;PMS7003;68414;53.946;27.634;2023-05-09T03:42:56;23.100000;22.066668;14.633333
77516;PMS7003;68414;53.946;27.634;2023-05-09T03:43:57;21.733334;20.650000;15.000000
77516;PMS7003;68414;53.946;27.634;2023-05-09T03:44:56;26.350000;23.566668;15.150000
77516;PMS7003;68414;53.946;27.634;2023-05-09T03:45:56;24.450001;23.266666;15.483334
77516;PMS7003;68414;53.946;27.634;2023-05-09T03:46:56;23.200001;21.366667;14.516666
77516;PMS7003;68414;53.946;27.634;2023-05-09T03:47:56;23.633333;22.316668;15.200000
77516;PMS7003;68414;53.946;27.634;2023-05-09T03:48:56;23.250000;21.450001;14.150000
77516;PMS7003;68414;53.946;27.634;2023-05-09T03:49:56;25.166666;22.916666;15.783334
77516;PMS7003;68414;53.946;27.634;2023-05-09T03:50:56;26.616667;23.850000;15.833333
77516;PMS7003;68414;53.946;27.634;2023-05-09T03:51:56;24.250000;23.416666;15.566667
77516;PMS7003;68414;53.946;27.634;2023-05-09T03:52:56;24.250000;21.916666;15.833333
77516;PMS7003;68414;53.946;27.634;2023-05-09T03:53:57;23.916666;23.100000;16.250000
77516;PMS7003;68414;53.946;27.634;2023-05-09T03:54:56;23.733334;22.716667;14.800000
77516;PMS7003;68414;53.946;27.634;2023-05-09T03:55:56;22.150000;21.483334;14.850000
77516;PMS7003;68414;53.946;27.634;2023-05-09T03:56:56;22.583334;21.483334;14.116667
77516;PMS7003;68414;53.946;27.634;2023-05-09T03:57:56;25.516666;24.066668;15.166667
77516;PMS7003;68414;53.946;27.634;2023-05-09T03:58:56;21.383333;20.933332;14.600000
77516;PMS7003;68414;53.946;27.634;2023-05-09T03:59:56;22.366667;19.833334;14.100000
77516;PMS7003;68414;53.946;27.634;2023-05-09T04:00:56;19.683332;18.733334;14.066667
77516;PMS7003;68414;53.946;27.634;2023-05-09T04:01:56;22.900000;21.333334;14.766666
77516;PMS7003;68414;53.946;27.634;2023-05-09T04:02:56;20.666666;18.466667;13.783334
77516;PMS7003;68414;53.946;27.634;2023-05-09T04:03:56;21.066668;20.316668;14.266666
77516;PMS7003;68414;53.946;27.634;2023-05-09T04:04:56;21.633333;19.983334;14.633333
77516;PMS7003;68414;53.946;27.634;2023-05-09T04:05:56;23.049999;22.049999;14.383333
77516;PMS7003;68414;53.946;27.634;2023-05-09T04:06:56;22.400000;21.283333;15.266666
77516;PMS7003;68414;53.946;27.634;2023-05-09T04:07:56;19.799999;18.583334;12.900000
77516;PMS7003;68414;53.946;27.634;2023-05-09T04:08:56;20.583334;20.183332;13.950000
77516;PMS7003;68414;53.946;27.634;2023-05-09T04:09:56;24.350000;21.683332;14.433333
77516;PMS7003;68414;53.946;27.634;2023-05-09T04:10:56;20.616667;19.516666;13.116667
77516;PMS7003;68414;53.946;27.634;2023-05-09T04:11:56;20.483334;19.900000;13.633333
77516;PMS7003;68414;53.946;27.634;2023-05-09T04:12:56;22.816668;21.049999;14.416667
77516;PMS7003;68414;53.946;27.634;2023-05-09T04:13:56;20.200001;18.783333;12.466666
77516;PMS7003;68414;53.946;27.634;2023-05-09T04:14:56;19.116667;18.200001;12.883333
77516;PMS7003;68414;53.946;27.634;2023-05-09T04:15:56;20.950001;20.100000;13.866667
77516;PMS7003;68414;53.946;27.634;2023-05-09T04:16:56;19.266666;18.799999;14.133333
77516;PMS7003;68414;53.946;27.634;2023-05-09T04:17:56;18.650000;17.766666;13.733334
77516;PMS7003;68414;53.946;27.634;2023-05-09T04:18:56;19.833334;19.100000;12.833333
77516;PMS7003;68414;53.946;27.634;2023-05-09T04:19:56;21.600000;21.200001;13.750000
77516;PMS7003;68414;53.946;27.634;2023-05-09T04:20:56;20.500000;19.650000;13.883333
77516;PMS7003;68414;53.946;27.634;2023-05-09T04:21:56;20.566668;19.216667;13.183333
77516;PMS7003;68414;53.946;27.634;2023-05-09T04:22:56;18.750000;18.066668;13.250000
77516;PMS7003;68414;53.946;27.634;2023-05-09T04:23:56;18.500000;17.966667;12.416667
77516;PMS7003;68414;53.946;27.634;2023-05-09T04:24:56;19.383333;18.366667;12.383333
77516;PMS7003;68414;53.946;27.634;2023-05-09T04:25:56;19.666666;19.383333;12.916667
77516;PMS7003;68414;53.946;27.634;2023-05-09T04:26:56;17.616667;16.783333;12.266666
77516;PMS7003;68414;53.946;27.634;2023-05-09T04:27:56;17.900000;16.799999;11.766666
77516;PMS7003;68414;53.946;27.634;2023-05-09T04:28:56;19.616667;18.283333;13.200000
77516;PMS7003;68414;53.946;27.634;2023-05-09T04:29:57;16.900000;15.766666;12.000000
77516;PMS7003;68414;53.946;27.634;2023-05-09T04:30:56;19.566668;17.500000;11.816667
77516;PMS7003;68414;53.946;27.634;2023-05-09T04:31:56;18.766666;18.350000;12.366667
77516;PMS7003;68414;53.946;27.634;2023-05-09T04:32:56;18.333334;17.533333;12.500000
77516;PMS7003;68414;53.946;27.634;2023-05-09T04:33:56;17.966667;17.650000;12.433333
77516;PMS7003;68414;53.946;27.634;2023-05-09T04:34:56;19.883333;19.049999;12.566667
77516;PMS7003;68414;53.946;27.634;2023-05-09T04:35:56;18.299999;17.766666;11.583333
77516;PMS7003;68414;53.946;27.634;2023-05-09T04:36:56;17.016666;16.450001;12.450000
77516;PMS7003;68414;53.946;27.634;2023-05-09T04:37:56;18.966667;17.783333;12.283334
77516;PMS7003;68414;53.946;27.634;2023-05-09T04:38:57;20.083334;18.916666;12.366667
77516;PMS7003;68414;53.946;27.634;2023-05-09T04:39:56;17.100000;16.666666;12.100000
77516;PMS7003;68414;53.946;27.634;2023-05-09T04:40:56;19.083334;18.183332;12.716666
77516;PMS7003;68414;53.946;27.634;2023-05-09T04:41:56;21.000000;20.549999;14.566667
77516;PMS7003;68414;53.946;27.634;2023-05-09T04:42:56;18.383333;18.016666;13.366667
77516;PMS7003;68414;53.946;27.634;2023-05-09T04:43:56;20.000000;18.816668;12.416667
77516;PMS7003;68414;53.946;27.634;2023-05-09T04:44:56;19.799999;18.616667;13.500000
77516;PMS7003;68414;53.946;27.634;2023-05-09T04:45:56;20.150000;20.016666;13.483334
77516;PMS7003;68414;53.946;27.634;2023-05-09T04:46:56;22.433332;20.916666;13.883333
77516;PMS7003;68414;53.946;27.634;2023-05-09T04:47:56;21.850000;20.799999;13.866667
77516;PMS7003;68414;53.946;27.634;2023-05-09T04:48:56;22.450001;21.333334;14.050000
77516;PMS7003;68414;53.946;27.634;2023-05-09T04:49:56;19.049999;18.100000;13.100000
77516;PMS7003;68414;53.946;27.634;2023-05-09T04:50:56;18.350000;17.799999;11.866667
77516;PMS7003;68414;53.946;27.634;2023-05-09T04:51:56;20.383333;19.616667;13.650000
77516;PMS7003;68414;53.946;27.634;2023-05-09T04:52:56;20.883333;19.816668;12.633333
77516;PMS7003;68414;53.946;27.634;2023-05-09T04:53:56;20.350000;19.733334;13.816667
77516;PMS7003;68414;53.946;27.634;2023-05-09T04:54:56;21.366667;20.366667;14.166667
77516;PMS7003;68414;53.946;27.634;2023-05-09T04:55:56;19.983334;19.166666;14.383333
77516;PMS7003;68414;53.946;27.634;2023-05-09T04:56:56;21.983334;20.350000;14.166667
77516;PMS7003;68414;53.946;27.634;2023-05-09T04:57:56;19.716667;19.416666;14.400000
77516;PMS7003;68414;53.946;27.634;2023-05-09T04:58:56;21.966667;21.233334;14.333333
77516;PMS7003;68414;53.946;27.634;2023-05-09T04:59:56;19.183332;18.733334;13.583333
77516;PMS7003;68414;53.946;27.634;2023-05-09T05:00:56;18.883333;17.966667;12.616667
77516;PMS7003;68414;53.946;27.634;2023-05-09T05:01:56;19.049999;18.666666;13.666667
77516;PMS7003;68414;53.946;27.634;2023-05-09T05:02:56;22.616667;20.933332;14.416667